Brookfield, Georgia
Current Conditions -  °F | °C
As of 2:35 AM on Saturday 20 Dec 2014 (Local Time) from KTMA Reporting Station
Light Rain Light Rain  
Wind Chill: 49°   Ceiling: 8500
Heat Index: 49°   Visibility: 10mi
Dew Point: 48°   Wind: 0mph
Humidity: 97%   Direction: NA
Pressure: 30.11"   Gusts: NA
Location:  31.42°N, 83.39°W
Report Text: KTMA 200735Z AUTO 00000KT 10SM -RA SCT046 SCT060 OVC085 10/09 A3011 RMK AO2 T00950090
Loading
Personal Weather Stations






























Interactive Weather Map New forecast layout! Learn more

10-Day Weather Forecast

Advertisements
Track Severe Weather on mobile